FOC weather

Fuzhou Changle International Airport
Fuzhou, Fujian Province, China

Public forecast

Using degrees Celsius for public forecast. Weather courtesy of forecast.io.

Current aviation weather report (METAR) for Fuzhou Changle International Airport

Retrieved 2020/02/19 06:00 UTC (39 minutes ago):

ZSFZ 190600Z 06005MPS CAVOK 14/05 Q1025 NOSIG

Aviation forecast (TAF) for Fuzhou Changle International Airport

Retrieved 2020/02/19 06:00 UTC (39 minutes ago):

TAF ZSFZ 190302Z 1906/2006 02004MPS 6000 FEW020 TX15/2006Z TN08/1921Z